createdAt,value
2018-07-19T16:24:45.575Z,204.00
2018-07-19T16:27:16.978Z,215.22
2018-07-19T16:29:48.005Z,214.00
2018-07-19T16:32:19.059Z,227.95
2018-07-19T16:34:50.251Z,209.35
2018-07-19T16:37:21.392Z,219.10
2018-07-19T16:39:52.839Z,211.22
2018-07-19T16:42:23.957Z,214.90
2018-07-19T16:44:55.143Z,211.03
2018-07-19T16:47:26.880Z,217.25
2018-07-19T16:49:58.274Z,213.57
2018-07-19T16:52:29.451Z,228.32
2018-07-19T16:55:01.030Z,215.50
2018-07-19T16:57:32.625Z,230.87
2018-07-19T17:00:04.458Z,226.15
2018-07-19T17:02:35.603Z,226.98
2018-07-19T17:05:07.730Z,236.90
2018-07-19T17:07:38.721Z,234.15
2018-07-19T17:10:10.430Z,243.17
2018-07-19T17:12:42.003Z,223.43
2018-07-19T17:15:13.148Z,215.77
2018-07-19T17:17:44.546Z,222.30
2018-07-19T17:20:15.700Z,226.12
2018-07-19T17:22:46.850Z,216.75
2018-07-19T17:25:18.144Z,227.85
2018-07-19T17:27:49.435Z,222.07
2018-07-19T17:30:21.907Z,220.95
2018-07-19T17:32:54.599Z,215.90
2018-07-19T17:35:25.522Z,223.62
2018-07-19T17:37:56.776Z,217.80
2018-07-19T17:40:28.200Z,211.22
2018-07-19T17:43:00.609Z,213.03
2018-07-19T17:45:32.144Z,218.55
2018-07-19T17:48:04.611Z,224.05
2018-07-19T17:50:36.667Z,219.40
2018-07-19T17:53:08.220Z,217.40
2018-07-19T17:55:39.301Z,207.80
2018-07-19T17:58:10.875Z,204.75
2018-07-19T18:00:44.203Z,212.25
2018-07-19T18:03:15.231Z,210.93
2018-07-19T18:05:46.556Z,211.45
2018-07-19T18:08:17.632Z,217.20
2018-07-19T18:10:49.988Z,208.85
2018-07-19T18:13:21.468Z,216.63
2018-07-19T18:15:52.532Z,211.82
2018-07-19T18:18:23.947Z,214.68
2018-07-19T18:20:54.980Z,213.87
2018-07-19T18:23:26.124Z,209.30
2018-07-19T18:25:57.458Z,216.55
2018-07-19T18:28:28.807Z,214.02
2018-07-19T18:31:01.202Z,220.73
2018-07-19T18:33:33.798Z,219.95
2018-07-19T18:36:04.990Z,206.53
2018-07-19T18:38:36.371Z,212.60
2018-07-19T18:41:07.703Z,212.23
2018-07-19T18:43:38.801Z,216.00
2018-07-19T18:46:10.129Z,208.28
2018-07-19T18:48:41.563Z,212.25
2018-07-19T18:51:12.731Z,211.30
2018-07-19T18:53:44.140Z,213.90
2018-07-19T18:56:15.327Z,214.68
2018-07-19T18:58:47.142Z,208.65
2018-07-19T19:01:18.294Z,210.68
2018-07-19T19:03:49.735Z,209.72
2018-07-19T19:06:20.932Z,209.95
2018-07-19T19:08:52.444Z,213.22
2018-07-19T19:11:25.002Z,212.35
2018-07-19T19:13:56.372Z,204.40
2018-07-19T19:16:27.848Z,201.90
2018-07-19T19:19:00.320Z,209.43
2018-07-19T19:21:32.156Z,205.20
2018-07-19T19:24:03.631Z,217.40
2018-07-19T19:26:34.741Z,206.80
2018-07-19T19:29:06.189Z,204.72
2018-07-19T19:31:37.203Z,202.62
2018-07-19T19:34:11.242Z,211.60
2018-07-19T19:36:43.878Z,207.20
2018-07-19T19:39:14.907Z,204.63
2018-07-19T19:41:46.704Z,200.87
2018-07-19T19:44:17.684Z,202.05
2018-07-19T19:46:48.898Z,195.10
2018-07-19T19:49:20.143Z,201.12
2018-07-19T19:52:10.679Z,191.90
2018-07-19T19:54:42.431Z,198.57
2018-07-19T19:59:54.523Z,194.13
2018-07-19T20:02:27.644Z,197.72
2018-07-19T20:05:00.258Z,193.07
2018-07-19T20:07:32.636Z,192.77
2018-07-19T20:10:07.672Z,193.60
2018-07-19T20:12:39.995Z,193.80
2018-07-19T20:15:11.603Z,196.82
2018-07-19T20:17:42.928Z,196.68
2018-07-19T20:20:13.868Z,218.30
2018-07-19T20:22:45.264Z,211.90
2018-07-19T20:25:16.317Z,199.75
2018-07-19T20:27:47.583Z,202.57
2018-07-19T20:30:18.791Z,197.37
2018-07-19T20:32:49.850Z,195.25
2018-07-19T20:35:20.867Z,194.62
2018-07-19T20:37:51.831Z,192.20
2018-07-19T20:40:22.871Z,195.57
2018-07-19T20:42:54.523Z,200.68
2018-07-19T20:45:25.606Z,196.75
2018-07-19T20:47:56.815Z,194.47
2018-07-19T20:50:27.877Z,192.90
2018-07-19T20:52:58.957Z,193.13
2018-07-19T20:55:30.731Z,192.13
2018-07-19T20:58:02.408Z,192.65
2018-07-19T21:00:33.818Z,189.03
2018-07-19T21:03:05.801Z,195.80
2018-07-19T21:05:38.306Z,192.50
2018-07-19T21:08:11.350Z,193.07
2018-07-19T21:10:42.437Z,193.87
2018-07-19T21:13:14.675Z,192.47
2018-07-19T21:15:46.135Z,191.80
2018-07-19T21:18:17.548Z,199.07
2018-07-19T21:20:48.602Z,194.30
2018-07-19T21:23:21.093Z,192.00
2018-07-19T21:25:52.743Z,190.03
2018-07-19T21:28:23.765Z,192.68
2018-07-19T21:30:54.963Z,190.70
2018-07-19T21:33:25.835Z,192.37
2018-07-19T21:35:57.015Z,193.28
2018-07-19T21:38:28.266Z,192.60
2018-07-19T21:40:59.787Z,193.60
2018-07-19T21:43:31.350Z,197.85
2018-07-19T21:46:02.443Z,192.43
2018-07-19T21:48:33.460Z,191.80
2018-07-19T21:51:05.218Z,191.37
2018-07-19T21:53:36.259Z,195.35
2018-07-19T21:56:07.153Z,189.72
2018-07-19T21:58:38.226Z,190.57
2018-07-19T22:01:10.556Z,191.15
2018-07-19T22:03:41.549Z,192.55
2018-07-19T22:06:12.880Z,189.70
2018-07-19T22:08:44.420Z,191.10
2018-07-19T22:11:15.450Z,188.30
2018-07-19T22:13:46.597Z,190.60
2018-07-19T22:16:18.955Z,186.70
2018-07-19T22:18:50.067Z,195.75
2018-07-19T22:21:21.556Z,189.90
2018-07-19T22:23:52.639Z,192.40
2018-07-19T22:26:23.659Z,189.67
2018-07-19T22:28:54.744Z,193.00
2018-07-19T22:31:25.969Z,189.67
2018-07-19T22:33:57.051Z,186.45
2018-07-19T22:36:28.198Z,191.77
2018-07-19T22:38:59.224Z,195.22
2018-07-19T22:41:30.375Z,194.97
2018-07-19T22:44:01.494Z,203.85
2018-07-19T22:46:32.903Z,190.12
2018-07-19T22:49:03.811Z,189.70
2018-07-19T22:51:35.023Z,190.70
2018-07-19T22:54:06.594Z,194.62
2018-07-19T22:56:37.763Z,197.57
2018-07-19T22:59:08.828Z,193.50
2018-07-19T23:01:39.867Z,191.10
2018-07-19T23:04:11.060Z,195.90
2018-07-19T23:06:42.275Z,191.40
2018-07-19T23:09:13.409Z,194.00
2018-07-19T23:11:44.508Z,188.70
2018-07-19T23:14:15.452Z,190.82
2018-07-19T23:16:46.546Z,190.05
2018-07-19T23:19:17.555Z,187.47
2018-07-19T23:21:48.788Z,189.22
2018-07-19T23:24:20.316Z,190.15
2018-07-19T23:26:51.562Z,193.65
2018-07-19T23:29:23.181Z,188.30
2018-07-19T23:31:54.630Z,191.82
2018-07-19T23:34:25.642Z,193.37
2018-07-19T23:37:03.489Z,188.95
2018-07-19T23:39:52.247Z,193.25
2018-07-19T23:42:27.673Z,192.05
2018-07-19T23:46:07.489Z,189.70
2018-07-19T23:48:38.642Z,187.82
2018-07-19T23:51:09.814Z,190.92
2018-07-19T23:53:41.097Z,190.97
2018-07-19T23:56:15.987Z,186.20
2018-07-19T23:58:51.213Z,194.20
